sensor_id;sensor_type;location;lat;lon;timestamp;pressure;altitude;pressure_sealevel;temperature;humidity
16094;BME280;8151;47.824;12.092;2023-03-13T00:02:09;96069.81;;;5.70;81.91
16094;BME280;8151;47.824;12.092;2023-03-13T00:04:38;96058.63;;;5.68;82.33
16094;BME280;8151;47.824;12.092;2023-03-13T00:07:06;96059.59;;;5.67;82.48
16094;BME280;8151;47.824;12.092;2023-03-13T00:09:36;96062.53;;;5.64;82.55
16094;BME280;8151;47.824;12.092;2023-03-13T00:12:06;96062.78;;;5.61;81.95
16094;BME280;8151;47.824;12.092;2023-03-13T00:14:35;96052.44;;;5.60;82.37
16094;BME280;8151;47.824;12.092;2023-03-13T00:17:03;96046.66;;;5.56;82.44
16094;BME280;8151;47.824;12.092;2023-03-13T00:19:31;96027.75;;;5.52;82.42
16094;BME280;8151;47.824;12.092;2023-03-13T00:22:00;96044.59;;;5.50;82.19
16094;BME280;8151;47.824;12.092;2023-03-13T00:24:28;96031.47;;;5.50;82.33
16094;BME280;8151;47.824;12.092;2023-03-13T00:26:57;96032.59;;;5.47;82.07
16094;BME280;8151;47.824;12.092;2023-03-13T00:29:31;96029.16;;;5.47;82.19
16094;BME280;8151;47.824;12.092;2023-03-13T00:32:00;96027.63;;;5.44;82.14
16094;BME280;8151;47.824;12.092;2023-03-13T00:34:29;96010.41;;;5.42;82.25
16094;BME280;8151;47.824;12.092;2023-03-13T00:36:57;96014.81;;;5.41;82.37
16094;BME280;8151;47.824;12.092;2023-03-13T00:39:26;96001.03;;;5.39;82.22
16094;BME280;8151;47.824;12.092;2023-03-13T00:41:54;96002.13;;;5.37;82.28
16094;BME280;8151;47.824;12.092;2023-03-13T00:44:23;96010.97;;;5.36;82.19
16094;BME280;8151;47.824;12.092;2023-03-13T00:46:52;95993.56;;;5.35;82.55
16094;BME280;8151;47.824;12.092;2023-03-13T00:49:21;96005.88;;;5.34;82.42
16094;BME280;8151;47.824;12.092;2023-03-13T00:51:49;95980.59;;;5.33;82.84
16094;BME280;8151;47.824;12.092;2023-03-13T00:54:18;95984.88;;;5.34;82.39
16094;BME280;8151;47.824;12.092;2023-03-13T00:56:46;95971.91;;;5.32;82.40
16094;BME280;8151;47.824;12.092;2023-03-13T00:59:15;95964.03;;;5.32;82.60
16094;BME280;8151;47.824;12.092;2023-03-13T01:01:44;95960.59;;;5.32;82.61
16094;BME280;8151;47.824;12.092;2023-03-13T01:04:15;95971.09;;;5.32;82.35
16094;BME280;8151;47.824;12.092;2023-03-13T01:06:43;95965.03;;;5.31;82.62
16094;BME280;8151;47.824;12.092;2023-03-13T01:09:13;95959.78;;;5.31;82.66
16094;BME280;8151;47.824;12.092;2023-03-13T01:11:43;95952.19;;;5.28;82.55
16094;BME280;8151;47.824;12.092;2023-03-13T01:14:14;95945.44;;;5.26;82.53
16094;BME280;8151;47.824;12.092;2023-03-13T01:16:42;95931.66;;;5.24;82.84
16094;BME280;8151;47.824;12.092;2023-03-13T01:19:13;95936.06;;;5.23;82.36
16094;BME280;8151;47.824;12.092;2023-03-13T01:21:43;95931.94;;;5.21;82.72
16094;BME280;8151;47.824;12.092;2023-03-13T01:24:12;95928.50;;;5.20;83.05
16094;BME280;8151;47.824;12.092;2023-03-13T01:26:40;95925.06;;;5.20;82.69
16094;BME280;8151;47.824;12.092;2023-03-13T01:29:12;95929.44;;;5.19;82.54
16094;BME280;8151;47.824;12.092;2023-03-13T01:31:40;95915.38;;;5.20;82.57
16094;BME280;8151;47.824;12.092;2023-03-13T01:34:09;95922.25;;;5.21;82.70
16094;BME280;8151;47.824;12.092;2023-03-13T01:36:37;95931.94;;;5.21;82.30
16094;BME280;8151;47.824;12.092;2023-03-13T01:39:07;95922.44;;;5.20;82.62
16094;BME280;8151;47.824;12.092;2023-03-13T01:41:36;95912.91;;;5.19;82.40
16094;BME280;8151;47.824;12.092;2023-03-13T01:44:05;95909.47;;;5.18;82.96
16094;BME280;8151;47.824;12.092;2023-03-13T01:46:33;95913.88;;;5.18;82.38
16094;BME280;8151;47.824;12.092;2023-03-13T01:49:04;95921.75;;;5.18;82.77
16094;BME280;8151;47.824;12.092;2023-03-13T01:51:37;95928.78;;;5.17;82.35
16094;BME280;8151;47.824;12.092;2023-03-13T01:54:10;95935.00;;;5.16;82.89
16094;BME280;8151;47.824;12.092;2023-03-13T01:56:43;95920.91;;;5.17;82.71
16094;BME280;8151;47.824;12.092;2023-03-13T01:59:14;95947.28;;;5.16;82.84
16094;BME280;8151;47.824;12.092;2023-03-13T02:01:46;95925.59;;;5.13;83.03
16094;BME280;8151;47.824;12.092;2023-03-13T02:04:18;95922.16;;;5.13;82.45
16094;BME280;8151;47.824;12.092;2023-03-13T02:06:50;95912.66;;;5.12;82.60
16094;BME280;8151;47.824;12.092;2023-03-13T02:09:24;95907.56;;;5.10;83.21
16094;BME280;8151;47.824;12.092;2023-03-13T02:11:56;95904.13;;;5.10;83.21
16094;BME280;8151;47.824;12.092;2023-03-13T02:14:31;95893.09;;;5.06;82.83
16094;BME280;8151;47.824;12.092;2023-03-13T02:17:01;95903.03;;;5.03;83.13
16094;BME280;8151;47.824;12.092;2023-03-13T02:19:36;95911.88;;;5.02;83.05
16094;BME280;8151;47.824;12.092;2023-03-13T02:22:11;95909.25;;;5.02;82.67
16094;BME280;8151;47.824;12.092;2023-03-13T02:24:48;95913.66;;;5.01;83.01
16094;BME280;8151;47.824;12.092;2023-03-13T02:27:20;95899.88;;;4.99;82.48
16094;BME280;8151;47.824;12.092;2023-03-13T02:29:49;95908.44;;;5.01;83.00
16094;BME280;8151;47.824;12.092;2023-03-13T02:32:19;95906.94;;;4.99;82.80
16094;BME280;8151;47.824;12.092;2023-03-13T02:34:49;95900.03;;;4.98;82.79
16094;BME280;8151;47.824;12.092;2023-03-13T02:37:20;95900.16;;;4.96;82.61
16094;BME280;8151;47.824;12.092;2023-03-13T02:39:50;95894.09;;;4.96;82.60
16094;BME280;8151;47.824;12.092;2023-03-13T02:42:21;95896.72;;;4.96;82.58
16094;BME280;8151;47.824;12.092;2023-03-13T02:44:50;95905.41;;;4.96;82.67
16094;BME280;8151;47.824;12.092;2023-03-13T02:47:19;95907.88;;;4.98;82.27
16094;BME280;8151;47.824;12.092;2023-03-13T02:49:48;95917.41;;;4.99;82.26
16094;BME280;8151;47.824;12.092;2023-03-13T02:52:20;95913.81;;;5.00;82.62
16094;BME280;8151;47.824;12.092;2023-03-13T02:54:54;95907.75;;;4.99;82.22
16094;BME280;8151;47.824;12.092;2023-03-13T02:57:25;95913.00;;;4.99;82.94
16094;BME280;8151;47.824;12.092;2023-03-13T02:59:53;95921.00;;;4.98;82.59
16094;BME280;8151;47.824;12.092;2023-03-13T03:02:22;95919.50;;;4.95;82.63
16094;BME280;8151;47.824;12.092;2023-03-13T03:04:51;95924.88;;;4.93;82.50
16094;BME280;8151;47.824;12.092;2023-03-13T03:07:19;95917.16;;;4.92;83.00
16094;BME280;8151;47.824;12.092;2023-03-13T03:09:47;95935.66;;;4.90;82.57
16094;BME280;8151;47.824;12.092;2023-03-13T03:12:16;95923.53;;;4.89;82.43
16094;BME280;8151;47.824;12.092;2023-03-13T03:14:46;95945.44;;;4.88;82.76
16094;BME280;8151;47.824;12.092;2023-03-13T03:17:21;95954.28;;;4.87;83.09
16094;BME280;8151;47.824;12.092;2023-03-13T03:19:50;95953.59;;;4.85;82.75
16094;BME280;8151;47.824;12.092;2023-03-13T03:22:18;95959.13;;;4.82;82.96
16094;BME280;8151;47.824;12.092;2023-03-13T03:24:47;95960.38;;;4.78;82.93
16094;BME280;8151;47.824;12.092;2023-03-13T03:27:15;95970.31;;;4.74;82.81
16094;BME280;8151;47.824;12.092;2023-03-13T03:29:45;95960.81;;;4.73;83.33
16094;BME280;8151;47.824;12.092;2023-03-13T03:32:14;95958.06;;;4.75;83.28
16094;BME280;8151;47.824;12.092;2023-03-13T03:34:42;95972.81;;;4.76;82.83
16094;BME280;8151;47.824;12.092;2023-03-13T03:37:11;95967.56;;;4.76;83.20
16094;BME280;8151;47.824;12.092;2023-03-13T03:39:39;95964.81;;;4.78;82.86
16094;BME280;8151;47.824;12.092;2023-03-13T03:42:08;95956.13;;;4.77;83.02
16094;BME280;8151;47.824;12.092;2023-03-13T03:44:36;95963.00;;;4.78;82.95
16094;BME280;8151;47.824;12.092;2023-03-13T03:47:06;95959.69;;;4.76;82.97
16094;BME280;8151;47.824;12.092;2023-03-13T03:49:35;95971.00;;;4.77;82.96
16094;BME280;8151;47.824;12.092;2023-03-13T03:52:03;95981.66;;;4.75;82.84
16094;BME280;8151;47.824;12.092;2023-03-13T03:54:32;95968.53;;;4.75;82.74
16094;BME280;8151;47.824;12.092;2023-03-13T03:57:01;95968.53;;;4.75;82.98
16094;BME280;8151;47.824;12.092;2023-03-13T03:59:29;95956.25;;;4.76;82.77
16094;BME280;8151;47.824;12.092;2023-03-13T04:01:58;95947.56;;;4.75;82.97
16094;BME280;8151;47.824;12.092;2023-03-13T04:04:27;95964.94;;;4.76;82.58
16094;BME280;8151;47.824;12.092;2023-03-13T04:06:56;95939.56;;;4.77;82.68
16094;BME280;8151;47.824;12.092;2023-03-13T04:09:24;95953.50;;;4.77;82.82
16094;BME280;8151;47.824;12.092;2023-03-13T04:11:53;95944.53;;;4.80;82.54
16094;BME280;8151;47.824;12.092;2023-03-13T04:14:21;95942.72;;;4.80;82.51
16094;BME280;8151;47.824;12.092;2023-03-13T04:16:50;95943.69;;;4.79;82.87
16094;BME280;8151;47.824;12.092;2023-03-13T04:19:18;95943.84;;;4.78;82.74
16094;BME280;8151;47.824;12.092;2023-03-13T04:21:48;95943.03;;;4.77;83.22
16094;BME280;8151;47.824;12.092;2023-03-13T04:24:16;95932.53;;;4.77;83.01
16094;BME280;8151;47.824;12.092;2023-03-13T04:26:45;95934.03;;;4.80;83.20
16094;BME280;8151;47.824;12.092;2023-03-13T04:29:13;95931.28;;;4.81;83.20
16094;BME280;8151;47.824;12.092;2023-03-13T04:31:41;95928.53;;;4.83;82.86
16094;BME280;8151;47.824;12.092;2023-03-13T04:34:10;95929.19;;;4.85;82.64
16094;BME280;8151;47.824;12.092;2023-03-13T04:36:38;95926.59;;;4.85;83.08
16094;BME280;8151;47.824;12.092;2023-03-13T04:39:08;95913.31;;;4.86;82.87
16094;BME280;8151;47.824;12.092;2023-03-13T04:41:36;95920.22;;;4.87;83.31
16094;BME280;8151;47.824;12.092;2023-03-13T04:44:05;95914.00;;;4.88;82.67
16094;BME280;8151;47.824;12.092;2023-03-13T04:46:33;95910.53;;;4.88;82.83
16094;BME280;8151;47.824;12.092;2023-03-13T04:49:02;95897.56;;;4.86;82.98
16094;BME280;8151;47.824;12.092;2023-03-13T04:51:35;95892.50;;;4.85;83.24
16094;BME280;8151;47.824;12.092;2023-03-13T04:54:04;95886.59;;;4.83;83.21
16094;BME280;8151;47.824;12.092;2023-03-13T04:56:34;95881.47;;;4.81;82.70
16094;BME280;8151;47.824;12.092;2023-03-13T04:59:11;95888.50;;;4.81;82.95
16094;BME280;8151;47.824;12.092;2023-03-13T05:01:40;95880.81;;;4.79;82.85
16094;BME280;8151;47.824;12.092;2023-03-13T05:04:09;95873.91;;;4.78;82.88
16094;BME280;8151;47.824;12.092;2023-03-13T05:06:38;95869.78;;;4.76;83.17
16094;BME280;8151;47.824;12.092;2023-03-13T05:09:06;95847.00;;;4.76;83.07
16094;BME280;8151;47.824;12.092;2023-03-13T05:11:36;95852.25;;;4.76;82.72
16094;BME280;8151;47.824;12.092;2023-03-13T05:14:06;95851.28;;;4.77;82.85
16094;BME280;8151;47.824;12.092;2023-03-13T05:16:35;95837.19;;;4.78;82.71
16094;BME280;8151;47.824;12.092;2023-03-13T05:19:03;95860.78;;;4.78;83.02
16094;BME280;8151;47.824;12.092;2023-03-13T05:21:32;95859.84;;;4.79;82.52
16094;BME280;8151;47.824;12.092;2023-03-13T05:24:00;95838.88;;;4.79;82.90
16094;BME280;8151;47.824;12.092;2023-03-13T05:26:29;95831.69;;;4.81;82.48
16094;BME280;8151;47.824;12.092;2023-03-13T05:28:58;95828.75;;;4.84;82.96
16094;BME280;8151;47.824;12.092;2023-03-13T05:31:27;95826.81;;;4.86;83.05
16094;BME280;8151;47.824;12.092;2023-03-13T05:33:55;95818.94;;;4.86;82.77
16094;BME280;8151;47.824;12.092;2023-03-13T05:36:24;95821.44;;;4.88;82.64
16094;BME280;8151;47.824;12.092;2023-03-13T05:38:54;95824.88;;;4.88;83.01
16094;BME280;8151;47.824;12.092;2023-03-13T05:41:23;95810.13;;;4.87;83.09
16094;BME280;8151;47.824;12.092;2023-03-13T05:43:51;95801.28;;;4.88;83.11
16094;BME280;8151;47.824;12.092;2023-03-13T05:46:21;95825.56;;;4.90;82.91
16094;BME280;8151;47.824;12.092;2023-03-13T05:48:49;95805.97;;;4.95;82.55
16094;BME280;8151;47.824;12.092;2023-03-13T05:51:18;95797.09;;;4.96;82.59
16094;BME280;8151;47.824;12.092;2023-03-13T05:53:47;95798.75;;;4.97;82.23
16094;BME280;8151;47.824;12.092;2023-03-13T05:56:15;95793.53;;;4.97;82.58
16094;BME280;8151;47.824;12.092;2023-03-13T05:58:43;95771.56;;;4.98;82.64
16094;BME280;8151;47.824;12.092;2023-03-13T06:01:12;95772.91;;;5.02;82.88
16094;BME280;8151;47.824;12.092;2023-03-13T06:03:42;95772.78;;;5.03;82.61
16094;BME280;8151;47.824;12.092;2023-03-13T06:06:11;95796.09;;;5.06;82.63
16094;BME280;8151;47.824;12.092;2023-03-13T06:08:39;95759.06;;;5.09;82.48
16094;BME280;8151;47.824;12.092;2023-03-13T06:11:08;95763.03;;;5.13;82.22
16094;BME280;8151;47.824;12.092;2023-03-13T06:13:36;95768.81;;;5.17;82.51
16094;BME280;8151;47.824;12.092;2023-03-13T06:16:05;95777.06;;;5.22;81.85
16094;BME280;8151;47.824;12.092;2023-03-13T06:18:34;95756.75;;;5.24;81.89
16094;BME280;8151;47.824;12.092;2023-03-13T06:21:04;95751.22;;;5.27;82.40
16094;BME280;8151;47.824;12.092;2023-03-13T06:23:33;95756.16;;;5.30;82.17
16094;BME280;8151;47.824;12.092;2023-03-13T06:26:02;95739.44;;;5.31;82.38
16094;BME280;8151;47.824;12.092;2023-03-13T06:28:30;95729.78;;;5.32;82.04
16094;BME280;8151;47.824;12.092;2023-03-13T06:31:03;95734.88;;;5.33;82.37
16094;BME280;8151;47.824;12.092;2023-03-13T06:33:32;95738.16;;;5.36;81.75
16094;BME280;8151;47.824;12.092;2023-03-13T06:36:01;95745.72;;;5.39;81.62
16094;BME280;8151;47.824;12.092;2023-03-13T06:38:31;95749.00;;;5.41;81.73
16094;BME280;8151;47.824;12.092;2023-03-13T06:41:00;95741.53;;;5.46;81.97
16094;BME280;8151;47.824;12.092;2023-03-13T06:43:28;95725.31;;;5.50;81.97
16094;BME280;8151;47.824;12.092;2023-03-13T06:46:02;95724.06;;;5.55;81.73
16094;BME280;8151;47.824;12.092;2023-03-13T06:48:30;95706.34;;;5.57;81.96
16094;BME280;8151;47.824;12.092;2023-03-13T06:50:59;95727.84;;;5.60;81.92
16094;BME280;8151;47.824;12.092;2023-03-13T06:53:27;95712.78;;;5.62;81.66
16094;BME280;8151;47.824;12.092;2023-03-13T06:55:59;95731.84;;;5.64;81.31
16094;BME280;8151;47.824;12.092;2023-03-13T06:58:28;95716.44;;;5.69;81.74
16094;BME280;8151;47.824;12.092;2023-03-13T07:00:59;95749.25;;;5.73;81.35
16094;BME280;8151;47.824;12.092;2023-03-13T07:03:28;95729.44;;;5.79;81.67
16094;BME280;8151;47.824;12.092;2023-03-13T07:05:57;95716.19;;;5.81;81.18
16094;BME280;8151;47.824;12.092;2023-03-13T07:08:26;95722.09;;;5.83;81.38
16094;BME280;8151;47.824;12.092;2023-03-13T07:10:59;95730.63;;;5.85;81.78
16094;BME280;8151;47.824;12.092;2023-03-13T07:13:28;95721.81;;;5.86;81.25
16094;BME280;8151;47.824;12.092;2023-03-13T07:15:58;95731.16;;;5.88;81.45
16094;BME280;8151;47.824;12.092;2023-03-13T07:18:27;95744.81;;;5.92;81.38
16094;BME280;8151;47.824;12.092;2023-03-13T07:20:58;95745.22;;;5.97;81.07
16094;BME280;8151;47.824;12.092;2023-03-13T07:23:28;95743.25;;;5.99;80.73
16094;BME280;8151;47.824;12.092;2023-03-13T07:25:59;95736.03;;;6.01;80.69
16094;BME280;8151;47.824;12.092;2023-03-13T07:28:29;95725.53;;;6.01;80.92
16094;BME280;8151;47.824;12.092;2023-03-13T07:31:06;95726.88;;;6.05;80.84
16094;BME280;8151;47.824;12.092;2023-03-13T07:33:35;95720.97;;;6.11;80.66
16094;BME280;8151;47.824;12.092;2023-03-13T07:36:04;95715.44;;;6.15;80.79
16094;BME280;8151;47.824;12.092;2023-03-13T07:38:33;95721.34;;;6.17;80.30
16094;BME280;8151;47.824;12.092;2023-03-13T07:41:03;95719.53;;;6.17;80.57
16094;BME280;8151;47.824;12.092;2023-03-13T07:43:32;95712.63;;;6.16;80.26
16094;BME280;8151;47.824;12.092;2023-03-13T07:46:02;95701.97;;;6.18;80.22
16094;BME280;8151;47.824;12.092;2023-03-13T07:48:35;95703.94;;;6.16;80.60
16094;BME280;8151;47.824;12.092;2023-03-13T07:51:05;95715.09;;;6.18;80.25
16094;BME280;8151;47.824;12.092;2023-03-13T07:53:34;95732.53;;;6.19;80.46
16094;BME280;8151;47.824;12.092;2023-03-13T07:56:05;95712.84;;;6.23;80.44
16094;BME280;8151;47.824;12.092;2023-03-13T07:58:36;95730.09;;;6.25;80.49
16094;BME280;8151;47.824;12.092;2023-03-13T08:01:09;95714.84;;;6.29;80.22
16094;BME280;8151;47.824;12.092;2023-03-13T08:03:39;95694.19;;;6.34;80.24
16094;BME280;8151;47.824;12.092;2023-03-13T08:06:09;95694.34;;;6.41;80.01
16094;BME280;8151;47.824;12.092;2023-03-13T08:08:37;95703.91;;;6.50;79.67
16094;BME280;8151;47.824;12.092;2023-03-13T08:11:09;95695.53;;;6.55;79.37
16094;BME280;8151;47.824;12.092;2023-03-13T08:13:38;95701.97;;;6.60;79.52
16094;BME280;8151;47.824;12.092;2023-03-13T08:16:08;95699.03;;;6.63;79.27
16094;BME280;8151;47.824;12.092;2023-03-13T08:18:39;95703.13;;;6.66;79.27
16094;BME280;8151;47.824;12.092;2023-03-13T08:21:09;95723.53;;;6.72;79.06
16094;BME280;8151;47.824;12.092;2023-03-13T08:23:38;95728.13;;;6.78;79.15
16094;BME280;8151;47.824;12.092;2023-03-13T08:26:10;95738.34;;;6.81;78.67
16094;BME280;8151;47.824;12.092;2023-03-13T08:28:40;95746.91;;;6.83;78.93
16094;BME280;8151;47.824;12.092;2023-03-13T08:31:10;95738.03;;;6.84;78.54
16094;BME280;8151;47.824;12.092;2023-03-13T08:33:39;95748.38;;;6.86;78.81
16094;BME280;8151;47.824;12.092;2023-03-13T08:36:13;95736.88;;;6.87;78.55
16094;BME280;8151;47.824;12.092;2023-03-13T08:38:44;95723.59;;;6.88;78.60
16094;BME280;8151;47.824;12.092;2023-03-13T08:41:15;95712.22;;;6.88;78.52
16094;BME280;8151;47.824;12.092;2023-03-13T08:43:46;95706.31;;;6.86;78.88
16094;BME280;8151;47.824;12.092;2023-03-13T08:46:15;95731.63;;;6.87;78.66
16094;BME280;8151;47.824;12.092;2023-03-13T08:48:48;95711.91;;;6.91;78.45
16094;BME280;8151;47.824;12.092;2023-03-13T08:51:18;95703.88;;;6.93;78.21
16094;BME280;8151;47.824;12.092;2023-03-13T08:53:47;95700.41;;;6.92;78.51
16094;BME280;8151;47.824;12.092;2023-03-13T08:56:19;95707.47;;;6.92;78.61
16094;BME280;8151;47.824;12.092;2023-03-13T08:58:48;95698.75;;;6.91;78.40
16094;BME280;8151;47.824;12.092;2023-03-13T09:01:18;95697.94;;;6.90;78.40
16094;BME280;8151;47.824;12.092;2023-03-13T09:03:46;95689.41;;;6.97;78.43
16094;BME280;8151;47.824;12.092;2023-03-13T09:06:16;95692.38;;;7.02;78.34
16094;BME280;8151;47.824;12.092;2023-03-13T09:08:44;95690.06;;;7.07;78.12
16094;BME280;8151;47.824;12.092;2023-03-13T09:11:14;95679.72;;;7.14;77.88
16094;BME280;8151;47.824;12.092;2023-03-13T09:13:46;95672.00;;;7.20;77.92
16094;BME280;8151;47.824;12.092;2023-03-13T09:16:16;95666.22;;;7.25;77.55
16094;BME280;8151;47.824;12.092;2023-03-13T09:18:45;95685.78;;;7.30;77.55
16094;BME280;8151;47.824;12.092;2023-03-13T09:21:15;95690.25;;;7.38;77.45
16094;BME280;8151;47.824;12.092;2023-03-13T09:23:45;95683.66;;;7.42;77.40
16094;BME280;8151;47.824;12.092;2023-03-13T09:26:15;95710.81;;;7.43;76.74
16094;BME280;8151;47.824;12.092;2023-03-13T09:28:45;95718.22;;;7.39;77.26
16094;BME280;8151;47.824;12.092;2023-03-13T09:31:15;95709.00;;;7.35;77.24
16094;BME280;8151;47.824;12.092;2023-03-13T09:33:46;95723.94;;;7.35;77.29
16094;BME280;8151;47.824;12.092;2023-03-13T09:36:19;95709.00;;;7.35;77.42
16094;BME280;8151;47.824;12.092;2023-03-13T09:38:49;95704.56;;;7.36;77.60
16094;BME280;8151;47.824;12.092;2023-03-13T09:41:22;95693.22;;;7.35;77.55
16094;BME280;8151;47.824;12.092;2023-03-13T09:43:57;95666.06;;;7.35;77.62
16094;BME280;8151;47.824;12.092;2023-03-13T09:46:35;95678.25;;;7.36;77.56
16094;BME280;8151;47.824;12.092;2023-03-13T09:49:12;95666.75;;;7.37;77.52
16094;BME280;8151;47.824;12.092;2023-03-13T09:51:47;95665.41;;;7.41;77.71
16094;BME280;8151;47.824;12.092;2023-03-13T09:54:23;95674.28;;;7.48;77.61
16094;BME280;8151;47.824;12.092;2023-03-13T09:56:55;95660.13;;;7.57;77.38
16094;BME280;8151;47.824;12.092;2023-03-13T09:59:34;95658.47;;;7.64;77.46
16094;BME280;8151;47.824;12.092;2023-03-13T10:02:15;95653.19;;;7.73;77.37
16094;BME280;8151;47.824;12.092;2023-03-13T10:04:49;95646.91;;;7.82;76.79
16094;BME280;8151;47.824;12.092;2023-03-13T10:07:19;95648.88;;;7.88;76.99
16094;BME280;8151;47.824;12.092;2023-03-13T10:09:48;95636.84;;;7.94;76.84
16094;BME280;8151;47.824;12.092;2023-03-13T10:12:18;95629.06;;;8.00;76.63
16094;BME280;8151;47.824;12.092;2023-03-13T10:14:57;95616.22;;;8.05;76.83
16094;BME280;8151;47.824;12.092;2023-03-13T10:17:31;95608.91;;;8.16;76.18
16094;BME280;8151;47.824;12.092;2023-03-13T10:20:02;95610.66;;;8.32;76.22
16094;BME280;8151;47.824;12.092;2023-03-13T10:22:37;95599.53;;;8.53;75.78
16094;BME280;8151;47.824;12.092;2023-03-13T10:25:08;95609.28;;;8.75;75.31
16094;BME280;8151;47.824;12.092;2023-03-13T10:27:42;95603.53;;;8.95;74.83
16094;BME280;8151;47.824;12.092;2023-03-13T10:30:24;95609.34;;;9.13;74.84
16094;BME280;8151;47.824;12.092;2023-03-13T10:32:53;95607.75;;;9.27;74.21
16094;BME280;8151;47.824;12.092;2023-03-13T10:35:31;95594.38;;;9.43;74.07
16094;BME280;8151;47.824;12.092;2023-03-13T10:38:05;95592.22;;;9.62;73.99
16094;BME280;8151;47.824;12.092;2023-03-13T10:40:36;95595.22;;;9.74;74.08
16094;BME280;8151;47.824;12.092;2023-03-13T10:43:12;95603.22;;;9.80;74.21
16094;BME280;8151;47.824;12.092;2023-03-13T10:45:42;95602.50;;;9.86;73.85
16094;BME280;8151;47.824;12.092;2023-03-13T10:48:12;95598.78;;;9.96;74.06
16094;BME280;8151;47.824;12.092;2023-03-13T10:50:43;95590.19;;;10.09;73.02
16094;BME280;8151;47.824;12.092;2023-03-13T10:53:21;95587.97;;;10.27;73.16
16094;BME280;8151;47.824;12.092;2023-03-13T10:55:52;95595.72;;;10.43;73.03
16094;BME280;8151;47.824;12.092;2023-03-13T10:58:23;95580.38;;;10.54;72.96
16094;BME280;8151;47.824;12.092;2023-03-13T11:01:09;95580.81;;;10.57;72.24
16094;BME280;8151;47.824;12.092;2023-03-13T11:03:43;95574.97;;;10.62;72.44
16094;BME280;8151;47.824;12.092;2023-03-13T11:06:27;95577.69;;;10.69;71.93
16094;BME280;8151;47.824;12.092;2023-03-13T11:09:01;95572.63;;;10.74;72.20
16094;BME280;8151;47.824;12.092;2023-03-13T11:11:42;95568.88;;;10.83;72.03
16094;BME280;8151;47.824;12.092;2023-03-13T11:14:14;95577.13;;;10.95;71.99
16094;BME280;8151;47.824;12.092;2023-03-13T11:16:48;95571.50;;;11.04;71.60
16094;BME280;8151;47.824;12.092;2023-03-13T11:19:42;95551.56;;;11.09;70.97
16094;BME280;8151;47.824;12.092;2023-03-13T11:22:29;95554.66;;;11.12;71.56
16094;BME280;8151;47.824;12.092;2023-03-13T11:25:16;95551.25;;;11.18;71.46
16094;BME280;8151;47.824;12.092;2023-03-13T11:27:54;95536.84;;;11.28;71.90
16094;BME280;8151;47.824;12.092;2023-03-13T11:30:44;95530.84;;;11.40;71.50
16094;BME280;8151;47.824;12.092;2023-03-13T11:33:39;95520.13;;;11.55;71.15
16094;BME280;8151;47.824;12.092;2023-03-13T11:36:17;95523.47;;;11.71;71.42
16094;BME280;8151;47.824;12.092;2023-03-13T11:38:50;95515.41;;;11.86;71.23
16094;BME280;8151;47.824;12.092;2023-03-13T11:41:29;95509.38;;;11.98;70.67
16094;BME280;8151;47.824;12.092;2023-03-13T11:44:12;95505.31;;;12.09;70.49
16094;BME280;8151;47.824;12.092;2023-03-13T11:46:53;95507.16;;;12.15;70.65
16094;BME280;8151;47.824;12.092;2023-03-13T11:49:47;95510.66;;;12.23;70.43
16094;BME280;8151;47.824;12.092;2023-03-13T11:52:29;95516.81;;;12.30;70.85
16094;BME280;8151;47.824;12.092;2023-03-13T11:55:27;95512.97;;;12.46;70.37
16094;BME280;8151;47.824;12.092;2023-03-13T11:58:08;95505.47;;;12.63;70.40
16094;BME280;8151;47.824;12.092;2023-03-13T12:00:46;95515.69;;;12.72;70.53
16094;BME280;8151;47.824;12.092;2023-03-13T12:03:18;95515.88;;;12.77;70.65
16094;BME280;8151;47.824;12.092;2023-03-13T12:05:52;95507.13;;;12.84;70.43
16094;BME280;8151;47.824;12.092;2023-03-13T12:08:25;95500.38;;;12.94;70.33
16094;BME280;8151;47.824;12.092;2023-03-13T12:11:03;95492.63;;;13.13;70.40
16094;BME280;8151;47.824;12.092;2023-03-13T12:13:38;95487.31;;;13.33;70.24
16094;BME280;8151;47.824;12.092;2023-03-13T12:16:10;95482.78;;;13.47;70.12
16094;BME280;8151;47.824;12.092;2023-03-13T12:18:41;95468.25;;;13.56;69.99
16094;BME280;8151;47.824;12.092;2023-03-13T12:21:17;95456.56;;;13.64;70.05
16094;BME280;8151;47.824;12.092;2023-03-13T12:23:52;95450.84;;;13.67;70.37
16094;BME280;8151;47.824;12.092;2023-03-13T12:26:32;95448.97;;;13.74;70.07
16094;BME280;8151;47.824;12.092;2023-03-13T12:29:07;95443.63;;;13.81;70.04
16094;BME280;8151;47.824;12.092;2023-03-13T12:31:43;95434.38;;;13.90;70.08
16094;BME280;8151;47.824;12.092;2023-03-13T12:34:19;95435.34;;;14.02;69.96
16094;BME280;8151;47.824;12.092;2023-03-13T12:36:54;95431.63;;;14.10;69.52
16094;BME280;8151;47.824;12.092;2023-03-13T12:39:35;95422.00;;;14.15;69.26
16094;BME280;8151;47.824;12.092;2023-03-13T12:42:18;95414.16;;;14.21;68.61
16094;BME280;8151;47.824;12.092;2023-03-13T12:44:50;95417.41;;;14.29;69.15
16094;BME280;8151;47.824;12.092;2023-03-13T12:47:24;95409.09;;;14.44;68.35
16094;BME280;8151;47.824;12.092;2023-03-13T12:50:25;95403.91;;;14.56;67.50
16094;BME280;8151;47.824;12.092;2023-03-13T12:53:28;95401.00;;;14.64;67.14
16094;BME280;8151;47.824;12.092;2023-03-13T12:56:24;95394.81;;;14.70;66.91
16094;BME280;8151;47.824;12.092;2023-03-13T12:58:58;95400.31;;;14.75;67.55
16094;BME280;8151;47.824;12.092;2023-03-13T13:01:32;95400.22;;;14.82;67.36
16094;BME280;8151;47.824;12.092;2023-03-13T13:04:05;95398.34;;;14.89;66.86
16094;BME280;8151;47.824;12.092;2023-03-13T13:06:53;95394.56;;;14.97;66.04
16094;BME280;8151;47.824;12.092;2023-03-13T13:09:25;95389.97;;;15.04;66.54
16094;BME280;8151;47.824;12.092;2023-03-13T13:11:57;95373.13;;;15.10;65.97
16094;BME280;8151;47.824;12.092;2023-03-13T13:17:53;95380.44;;;15.15;65.68
16094;BME280;8151;47.824;12.092;2023-03-13T13:20:35;95367.81;;;15.10;65.03
16094;BME280;8151;47.824;12.092;2023-03-13T13:23:33;95349.75;;;15.12;64.62
16094;BME280;8151;47.824;12.092;2023-03-13T13:32:37;95340.66;;;15.20;64.37
16094;BME280;8151;47.824;12.092;2023-03-13T13:38:27;95342.06;;;15.41;63.25
16094;BME280;8151;47.824;12.092;2023-03-13T13:41:23;95333.28;;;15.52;63.64
16094;BME280;8151;47.824;12.092;2023-03-13T13:44:20;95331.34;;;15.60;62.41
16094;BME280;8151;47.824;12.092;2023-03-13T13:46:49;95323.88;;;15.68;62.80
16094;BME280;8151;47.824;12.092;2023-03-13T13:49:20;95321.72;;;15.77;62.18